N52MC PHNL-PHLI
Flight info
| Callsign | N52MC |
|---|---|
| Flight time | 0h 47m |
| Altitude | 6000 |
| Route | KEOLA3 LIH |
| Aircraft | PA34/L-SDFGRY/S |
Departure
| Time | 2026-04-22 05:52 |
|---|---|
| Airport | Daniel K. Inouye International Airport (PHNL) |
Arrival
| Time | 2026-04-22 06:39 |
|---|---|
| Airport | Lihue Airport (PHLI) |
| Time | Latitude | Longitude | Altitude | Speed | Heading |
|---|---|---|---|---|---|
| 2026-04-22 05:47 | 21.32387 | -157.90951 | 23 ft | 0 kts | 80° |
| 2026-04-22 05:47 | 21.32388 | -157.90942 | 23 ft | 1 kts | 73° |
| 2026-04-22 05:47 | 21.32396 | -157.90941 | 23 ft | 0 kts | 316° |
| 2026-04-22 05:48 | 21.32408 | -157.90955 | 23 ft | 5 kts | 322° |
| 2026-04-22 05:48 | 21.32433 | -157.90985 | 23 ft | 0 kts | 349° |
| 2026-04-22 05:50 | 21.32446 | -157.90987 | 23 ft | 0 kts | 351° |
| 2026-04-22 05:51 | 21.32449 | -157.90987 | 23 ft | 3 kts | 9° |
| 2026-04-22 05:51 | 21.32508 | -157.90927 | 23 ft | 12 kts | 14° |
| 2026-04-22 05:51 | 21.32525 | -157.90955 | 23 ft | 0 kts | 268° |
| 2026-04-22 05:51 | 21.32525 | -157.91011 | 23 ft | 36 kts | 269° |
| 2026-04-22 05:52 | 21.32529 | -157.91620 | 83 ft | 95 kts | 268° |
| 2026-04-22 05:52 | 21.32549 | -157.92418 | 455 ft | 98 kts | 269° |
| 2026-04-22 05:52 | 21.32606 | -157.93211 | 914 ft | 97 kts | 274° |
| 2026-04-22 05:52 | 21.32661 | -157.94038 | 1349 ft | 100 kts | 270° |
| 2026-04-22 05:53 | 21.32722 | -157.94887 | 1804 ft | 98 kts | 272° |
| 2026-04-22 05:53 | 21.32712 | -157.95721 | 2306 ft | 96 kts | 265° |
| 2026-04-22 05:53 | 21.32670 | -157.96645 | 2639 ft | 109 kts | 269° |
| 2026-04-22 05:53 | 21.32664 | -157.97562 | 3142 ft | 104 kts | 268° |
| 2026-04-22 05:54 | 21.32665 | -157.98447 | 3559 ft | 107 kts | 268° |
| 2026-04-22 05:54 | 21.32643 | -157.99400 | 3993 ft | 111 kts | 268° |
| 2026-04-22 05:54 | 21.32620 | -158.00375 | 4429 ft | 112 kts | 269° |
| 2026-04-22 05:54 | 21.32622 | -158.01308 | 4869 ft | 110 kts | 266° |
| 2026-04-22 05:55 | 21.32556 | -158.02295 | 5222 ft | 116 kts | 259° |
| 2026-04-22 05:55 | 21.32364 | -158.03313 | 5595 ft | 119 kts | 257° |
| 2026-04-22 05:55 | 21.32201 | -158.04349 | 5891 ft | 126 kts | 260° |
| 2026-04-22 05:55 | 21.32003 | -158.05469 | 5982 ft | 126 kts | 262° |
| 2026-04-22 05:56 | 21.31897 | -158.06584 | 5983 ft | 132 kts | 270° |
| 2026-04-22 05:56 | 21.31934 | -158.07654 | 6043 ft | 133 kts | 272° |
| 2026-04-22 05:56 | 21.32007 | -158.08771 | 5966 ft | 137 kts | 278° |
| 2026-04-22 05:56 | 21.32090 | -158.09856 | 5987 ft | 134 kts | 268° |
| 2026-04-22 05:57 | 21.32001 | -158.10921 | 5986 ft | 134 kts | 265° |
| 2026-04-22 05:57 | 21.31902 | -158.11972 | 5988 ft | 134 kts | 266° |
| 2026-04-22 05:57 | 21.31822 | -158.13020 | 5988 ft | 135 kts | 267° |
| 2026-04-22 05:57 | 21.31752 | -158.14079 | 5987 ft | 136 kts | 267° |
| 2026-04-22 05:58 | 21.31686 | -158.15128 | 5987 ft | 137 kts | 266° |
| 2026-04-22 05:58 | 21.31618 | -158.16180 | 6046 ft | 135 kts | 268° |
| 2026-04-22 05:58 | 21.31561 | -158.17253 | 6029 ft | 139 kts | 268° |
| 2026-04-22 05:58 | 21.31502 | -158.18327 | 6027 ft | 141 kts | 268° |
| 2026-04-22 05:59 | 21.31444 | -158.19405 | 6025 ft | 142 kts | 268° |
| 2026-04-22 05:59 | 21.31385 | -158.20522 | 6025 ft | 141 kts | 268° |
| 2026-04-22 05:59 | 21.31322 | -158.21597 | 6024 ft | 141 kts | 268° |
| 2026-04-22 05:59 | 21.31265 | -158.22696 | 6024 ft | 141 kts | 268° |
| 2026-04-22 06:00 | 21.31209 | -158.23784 | 6026 ft | 141 kts | 268° |
| 2026-04-22 06:00 | 21.31146 | -158.24899 | 6023 ft | 141 kts | 268° |
| 2026-04-22 06:00 | 21.31087 | -158.26015 | 6024 ft | 141 kts | 268° |
| 2026-04-22 06:00 | 21.31034 | -158.27098 | 6023 ft | 141 kts | 269° |
| 2026-04-22 06:01 | 21.30975 | -158.28189 | 6031 ft | 141 kts | 267° |
| 2026-04-22 06:01 | 21.30905 | -158.29356 | 6033 ft | 153 kts | 268° |
| 2026-04-22 06:01 | 21.30838 | -158.30585 | 6033 ft | 160 kts | 267° |
| 2026-04-22 06:01 | 21.30772 | -158.31847 | 6029 ft | 164 kts | 268° |
| 2026-04-22 06:02 | 21.30701 | -158.33127 | 6030 ft | 166 kts | 267° |
| 2026-04-22 06:02 | 21.30628 | -158.34428 | 6033 ft | 166 kts | 268° |
| 2026-04-22 06:02 | 21.30557 | -158.35748 | 6033 ft | 167 kts | 268° |
| 2026-04-22 06:02 | 21.30483 | -158.37091 | 6037 ft | 167 kts | 267° |
| 2026-04-22 06:03 | 21.30411 | -158.38379 | 6035 ft | 159 kts | 267° |
| 2026-04-22 06:03 | 21.30341 | -158.39645 | 6026 ft | 148 kts | 268° |
| 2026-04-22 06:03 | 21.30268 | -158.40892 | 6037 ft | 144 kts | 267° |
| 2026-04-22 06:03 | 21.30207 | -158.42102 | 6033 ft | 142 kts | 268° |
| 2026-04-22 06:04 | 21.30139 | -158.43303 | 6035 ft | 141 kts | 268° |
| 2026-04-22 06:04 | 21.30073 | -158.44519 | 6037 ft | 142 kts | 268° |
| 2026-04-22 06:04 | 21.30003 | -158.45734 | 6042 ft | 141 kts | 268° |
| 2026-04-22 06:04 | 21.29929 | -158.46942 | 6040 ft | 142 kts | 268° |
| 2026-04-22 06:05 | 21.29865 | -158.48134 | 6047 ft | 142 kts | 268° |
| 2026-04-22 06:05 | 21.29996 | -158.49310 | 6037 ft | 141 kts | 294° |
| 2026-04-22 06:05 | 21.30543 | -158.50366 | 6031 ft | 141 kts | 304° |
| 2026-04-22 06:05 | 21.31150 | -158.51378 | 6036 ft | 140 kts | 304° |
| 2026-04-22 06:06 | 21.31761 | -158.52396 | 6028 ft | 141 kts | 303° |
| 2026-04-22 06:06 | 21.32325 | -158.53365 | 6038 ft | 141 kts | 303° |
| 2026-04-22 06:06 | 21.32864 | -158.54286 | 6048 ft | 141 kts | 303° |
| 2026-04-22 06:06 | 21.33467 | -158.55301 | 6038 ft | 141 kts | 300° |
| 2026-04-22 06:07 | 21.34035 | -158.56274 | 6041 ft | 141 kts | 301° |
| 2026-04-22 06:07 | 21.34615 | -158.57269 | 6048 ft | 141 kts | 301° |
| 2026-04-22 06:07 | 21.35196 | -158.58260 | 6018 ft | 140 kts | 302° |
| 2026-04-22 06:07 | 21.35748 | -158.59216 | 6054 ft | 139 kts | 303° |
| 2026-04-22 06:08 | 21.36321 | -158.60188 | 6054 ft | 142 kts | 301° |
| 2026-04-22 06:08 | 21.36893 | -158.61159 | 6027 ft | 142 kts | 304° |
| 2026-04-22 06:08 | 21.37468 | -158.62148 | 6035 ft | 141 kts | 304° |
| 2026-04-22 06:08 | 21.38057 | -158.63165 | 6043 ft | 141 kts | 303° |
| 2026-04-22 06:09 | 21.38644 | -158.64183 | 6044 ft | 141 kts | 303° |
| 2026-04-22 06:09 | 21.39217 | -158.65153 | 6045 ft | 141 kts | 303° |
| 2026-04-22 06:09 | 21.39783 | -158.66113 | 6045 ft | 141 kts | 303° |
| 2026-04-22 06:09 | 21.40351 | -158.67084 | 6045 ft | 141 kts | 303° |
| 2026-04-22 06:10 | 21.40904 | -158.68037 | 6045 ft | 141 kts | 302° |
| 2026-04-22 06:10 | 21.41473 | -158.69022 | 6045 ft | 141 kts | 302° |
| 2026-04-22 06:10 | 21.42028 | -158.69974 | 6045 ft | 141 kts | 302° |
| 2026-04-22 06:10 | 21.42585 | -158.70937 | 6044 ft | 141 kts | 302° |
| 2026-04-22 06:11 | 21.43159 | -158.71918 | 6045 ft | 141 kts | 303° |
| 2026-04-22 06:11 | 21.43730 | -158.72897 | 6046 ft | 141 kts | 302° |
| 2026-04-22 06:11 | 21.44296 | -158.73868 | 6046 ft | 141 kts | 303° |
| 2026-04-22 06:11 | 21.44845 | -158.74811 | 6045 ft | 141 kts | 301° |
| 2026-04-22 06:12 | 21.45405 | -158.75772 | 6046 ft | 141 kts | 303° |
| 2026-04-22 06:12 | 21.45947 | -158.76706 | 6044 ft | 141 kts | 303° |
| 2026-04-22 06:12 | 21.46482 | -158.77626 | 6045 ft | 141 kts | 303° |
| 2026-04-22 06:12 | 21.47017 | -158.78543 | 6045 ft | 141 kts | 303° |
| 2026-04-22 06:13 | 21.47573 | -158.79498 | 6045 ft | 141 kts | 303° |
| 2026-04-22 06:13 | 21.48117 | -158.80434 | 6045 ft | 141 kts | 303° |
| 2026-04-22 06:13 | 21.48660 | -158.81366 | 6044 ft | 142 kts | 302° |
| 2026-04-22 06:13 | 21.49210 | -158.82314 | 6043 ft | 142 kts | 303° |
| 2026-04-22 06:14 | 21.49757 | -158.83252 | 6042 ft | 141 kts | 303° |
| 2026-04-22 06:14 | 21.50301 | -158.84187 | 6042 ft | 141 kts | 303° |
| 2026-04-22 06:14 | 21.50853 | -158.85138 | 6041 ft | 141 kts | 302° |
| 2026-04-22 06:14 | 21.51408 | -158.86093 | 6020 ft | 142 kts | 303° |
| 2026-04-22 06:15 | 21.51967 | -158.87054 | 6015 ft | 142 kts | 303° |
| 2026-04-22 06:15 | 21.52516 | -158.87997 | 6018 ft | 142 kts | 303° |
| 2026-04-22 06:15 | 21.53072 | -158.88953 | 6011 ft | 142 kts | 302° |
| 2026-04-22 06:15 | 21.53627 | -158.89906 | 6015 ft | 141 kts | 303° |
| 2026-04-22 06:16 | 21.54175 | -158.90848 | 6015 ft | 141 kts | 303° |
| 2026-04-22 06:16 | 21.54722 | -158.91786 | 6015 ft | 141 kts | 303° |
| 2026-04-22 06:16 | 21.55264 | -158.92720 | 6015 ft | 141 kts | 303° |
| 2026-04-22 06:16 | 21.55823 | -158.93681 | 6015 ft | 141 kts | 303° |
| 2026-04-22 06:17 | 21.56380 | -158.94638 | 6015 ft | 141 kts | 303° |
| 2026-04-22 06:17 | 21.56940 | -158.95601 | 6015 ft | 141 kts | 303° |
| 2026-04-22 06:17 | 21.57493 | -158.96553 | 6015 ft | 141 kts | 303° |
| 2026-04-22 06:17 | 21.58046 | -158.97504 | 6015 ft | 141 kts | 303° |
| 2026-04-22 06:18 | 21.58593 | -158.98445 | 6015 ft | 141 kts | 303° |
| 2026-04-22 06:18 | 21.59142 | -158.99391 | 6015 ft | 141 kts | 303° |
| 2026-04-22 06:18 | 21.59706 | -159.00363 | 6014 ft | 141 kts | 302° |
| 2026-04-22 06:18 | 21.60246 | -159.01294 | 6015 ft | 141 kts | 302° |
| 2026-04-22 06:19 | 21.60818 | -159.02272 | 6017 ft | 141 kts | 303° |
| 2026-04-22 06:19 | 21.61386 | -159.03259 | 6014 ft | 141 kts | 302° |
| 2026-04-22 06:19 | 21.61957 | -159.04230 | 6014 ft | 141 kts | 303° |
| 2026-04-22 06:19 | 21.62501 | -159.05165 | 6014 ft | 141 kts | 302° |
| 2026-04-22 06:20 | 21.63031 | -159.06090 | 6016 ft | 145 kts | 303° |
| 2026-04-22 06:20 | 21.63614 | -159.07156 | 5774 ft | 157 kts | 300° |
| 2026-04-22 06:20 | 21.64228 | -159.08382 | 5507 ft | 157 kts | 300° |
| 2026-04-22 06:20 | 21.64838 | -159.09460 | 5378 ft | 152 kts | 302° |
| 2026-04-22 06:21 | 21.65429 | -159.10510 | 5101 ft | 158 kts | 302° |
| 2026-04-22 06:21 | 21.66078 | -159.11659 | 4752 ft | 162 kts | 302° |
| 2026-04-22 06:21 | 21.66721 | -159.12732 | 4501 ft | 160 kts | 308° |
| 2026-04-22 06:21 | 21.67438 | -159.13747 | 4315 ft | 155 kts | 303° |
| 2026-04-22 06:22 | 21.68070 | -159.14810 | 4135 ft | 154 kts | 302° |
| 2026-04-22 06:22 | 21.68695 | -159.15941 | 3836 ft | 160 kts | 302° |
| 2026-04-22 06:22 | 21.69349 | -159.17099 | 3552 ft | 160 kts | 304° |
| 2026-04-22 06:22 | 21.70071 | -159.18179 | 3320 ft | 158 kts | 308° |
| 2026-04-22 06:23 | 21.70786 | -159.19351 | 3108 ft | 156 kts | 301° |
| 2026-04-22 06:23 | 21.71421 | -159.20558 | 3073 ft | 157 kts | 300° |
| 2026-04-22 06:23 | 21.72054 | -159.21799 | 3023 ft | 163 kts | 300° |
| 2026-04-22 06:23 | 21.72718 | -159.23030 | 3017 ft | 163 kts | 303° |
| 2026-04-22 06:24 | 21.74539 | -159.24753 | 3035 ft | 160 kts | 345° |
| 2026-04-22 06:24 | 21.75764 | -159.25215 | 3045 ft | 160 kts | 340° |
| 2026-04-22 06:24 | 21.77020 | -159.25488 | 3042 ft | 159 kts | 7° |
| 2026-04-22 06:25 | 21.78073 | -159.24979 | 3036 ft | 158 kts | 42° |
| 2026-04-22 06:25 | 21.78739 | -159.23901 | 3040 ft | 158 kts | 61° |
| 2026-04-22 06:25 | 21.79350 | -159.22769 | 3051 ft | 158 kts | 58° |
| 2026-04-22 06:25 | 21.80021 | -159.21668 | 3061 ft | 158 kts | 55° |
| 2026-04-22 06:26 | 21.80745 | -159.20618 | 3071 ft | 158 kts | 52° |
| 2026-04-22 06:26 | 21.81511 | -159.19634 | 3082 ft | 158 kts | 49° |
| 2026-04-22 06:26 | 21.82366 | -159.18658 | 3092 ft | 158 kts | 45° |
| 2026-04-22 06:26 | 21.83227 | -159.17784 | 3102 ft | 158 kts | 42° |
| 2026-04-22 06:27 | 21.84146 | -159.16942 | 3113 ft | 158 kts | 39° |
| 2026-04-22 06:27 | 21.85064 | -159.16187 | 3085 ft | 160 kts | 36° |
| 2026-04-22 06:27 | 21.86066 | -159.15456 | 2495 ft | 191 kts | 33° |
| 2026-04-22 06:27 | 21.87232 | -159.14722 | 2840 ft | 153 kts | 26° |
| 2026-04-22 06:28 | 21.88274 | -159.14214 | 3001 ft | 149 kts | 24° |
| 2026-04-22 06:28 | 21.89357 | -159.13751 | 3001 ft | 155 kts | 21° |
| 2026-04-22 06:28 | 21.90474 | -159.13348 | 3002 ft | 157 kts | 18° |
| 2026-04-22 06:28 | 21.91683 | -159.12990 | 3003 ft | 159 kts | 14° |
| 2026-04-22 06:29 | 21.92892 | -159.12712 | 3003 ft | 160 kts | 11° |
| 2026-04-22 06:29 | 21.94138 | -159.12505 | 3003 ft | 160 kts | 8° |
| 2026-04-22 06:29 | 21.95394 | -159.12364 | 3003 ft | 160 kts | 5° |
| 2026-04-22 06:29 | 21.96634 | -159.12311 | 3002 ft | 160 kts | 1° |
| 2026-04-22 06:30 | 21.97857 | -159.12346 | 3002 ft | 160 kts | 358° |
| 2026-04-22 06:30 | 21.99090 | -159.12468 | 3002 ft | 160 kts | 354° |
| 2026-04-22 06:30 | 22.00300 | -159.12672 | 3002 ft | 160 kts | 351° |
| 2026-04-22 06:30 | 22.01518 | -159.12962 | 3002 ft | 161 kts | 347° |
| 2026-04-22 06:31 | 22.02719 | -159.13335 | 3002 ft | 161 kts | 343° |
| 2026-04-22 06:31 | 22.03936 | -159.13805 | 3002 ft | 161 kts | 340° |
| 2026-04-22 06:31 | 22.05081 | -159.14336 | 3003 ft | 161 kts | 336° |
| 2026-04-22 06:31 | 22.06241 | -159.14969 | 3003 ft | 162 kts | 332° |
| 2026-04-22 06:32 | 22.07334 | -159.15666 | 3003 ft | 162 kts | 329° |
| 2026-04-22 06:32 | 22.08347 | -159.16408 | 3003 ft | 163 kts | 325° |
| 2026-04-22 06:32 | 22.09301 | -159.17201 | 3003 ft | 163 kts | 322° |
| 2026-04-22 06:32 | 22.10230 | -159.18076 | 3003 ft | 163 kts | 318° |
| 2026-04-22 06:33 | 22.11094 | -159.18996 | 3003 ft | 163 kts | 315° |
| 2026-04-22 06:33 | 22.11961 | -159.20041 | 3003 ft | 164 kts | 311° |
| 2026-04-22 06:33 | 22.12791 | -159.21185 | 3003 ft | 164 kts | 307° |
| 2026-04-22 06:33 | 22.13512 | -159.22333 | 3003 ft | 164 kts | 303° |
| 2026-04-22 06:34 | 22.13990 | -159.23656 | 3000 ft | 165 kts | 279° |
| 2026-04-22 06:34 | 22.13873 | -159.25124 | 3000 ft | 165 kts | 252° |
| 2026-04-22 06:34 | 22.13173 | -159.26335 | 3000 ft | 165 kts | 225° |
| 2026-04-22 06:34 | 22.12049 | -159.27072 | 3003 ft | 164 kts | 200° |
| 2026-04-22 06:35 | 22.10908 | -159.27565 | 2775 ft | 138 kts | 201° |
| 2026-04-22 06:35 | 22.09839 | -159.28030 | 2551 ft | 142 kts | 201° |
| 2026-04-22 06:35 | 22.08749 | -159.28502 | 2334 ft | 143 kts | 201° |
| 2026-04-22 06:35 | 22.07775 | -159.28926 | 2063 ft | 110 kts | 202° |
| 2026-04-22 06:36 | 22.06921 | -159.29305 | 1751 ft | 114 kts | 202° |
| 2026-04-22 06:36 | 22.06140 | -159.29652 | 1414 ft | 99 kts | 202° |
| 2026-04-22 06:36 | 22.05345 | -159.30009 | 1072 ft | 103 kts | 203° |
| 2026-04-22 06:36 | 22.04589 | -159.30359 | 781 ft | 96 kts | 204° |
| 2026-04-22 06:37 | 22.03876 | -159.30695 | 519 ft | 95 kts | 205° |
| 2026-04-22 06:37 | 22.03141 | -159.31045 | 302 ft | 97 kts | 205° |
| 2026-04-22 06:37 | 22.02352 | -159.31380 | 372 ft | 100 kts | 203° |
| 2026-04-22 06:37 | 22.01620 | -159.31665 | 522 ft | 95 kts | 201° |
| 2026-04-22 06:38 | 22.00876 | -159.31932 | 635 ft | 93 kts | 200° |
| 2026-04-22 06:38 | 22.00177 | -159.32219 | 566 ft | 91 kts | 207° |
| 2026-04-22 06:38 | 21.99543 | -159.32602 | 390 ft | 85 kts | 215° |
| 2026-04-22 06:38 | 21.99003 | -159.33046 | 243 ft | 82 kts | 225° |
| 2026-04-22 06:39 | 21.98568 | -159.33510 | 143 ft | 79 kts | 227° |
| 2026-04-22 06:39 | 21.98188 | -159.33922 | 133 ft | 58 kts | 223° |
| 2026-04-22 06:39 | 21.98036 | -159.34090 | 146 ft | 22 kts | 229° |
| 2026-04-22 06:39 | 21.97894 | -159.34251 | 155 ft | 9 kts | 233° |
| 2026-04-22 06:40 | 21.97767 | -159.34380 | 165 ft | 26 kts | 222° |
| 2026-04-22 06:40 | 21.97662 | -159.34502 | 172 ft | 16 kts | 265° |
| 2026-04-22 06:40 | 21.97753 | -159.34547 | 174 ft | 17 kts | 36° |
| 2026-04-22 06:40 | 21.97844 | -159.34456 | 169 ft | 18 kts | 48° |
| 2026-04-22 06:41 | 21.98047 | -159.34236 | 155 ft | 28 kts | 46° |
| 2026-04-22 06:41 | 21.98160 | -159.34244 | 154 ft | 13 kts | 324° |
| 2026-04-22 06:41 | 21.98258 | -159.34326 | 157 ft | 0 kts | 314° |